Time;durP1;ratioP1;P1;durP2;ratioP2;P2;SDS_P1;SDS_P2;PMS_P1;PMS_P2;Temp;Humidity;BMP_temperature;BMP_pressure;BME280_temperature;BME280_humidity;BME280_pressure;Samples;Min_cycle;Max_cycle;Signal;HPM_P1;HPM_P2
2021/12/08 00:01:37;;;;;;;10.90;7.05;;;;;;;7.20;58.55;99552.69;3387906;29;20071;-75
2021/12/08 00:03:18;;;;;;;12.20;8.20;;;;;;;7.20;58.53;99547.38;3387126;29;20036;-77
2021/12/08 00:04:58;;;;;;;12.48;7.30;;;;;;;7.23;58.35;99557.66;3388001;29;20051;-75
2021/12/08 00:06:39;;;;;;;13.25;7.40;;;;;;;7.25;58.39;99560.94;3387529;29;20044;-75
2021/12/08 00:08:21;;;;;;;11.45;7.05;;;;;;;7.30;58.68;99568.38;3387795;29;20051;-74
2021/12/08 00:10:15;;;;;;;11.23;6.93;;;;;;;7.30;58.46;99569.19;3388107;29;20072;-76
2021/12/08 00:13:55;;;;;;;12.85;8.15;;;;;;;7.35;58.44;99571.31;3382087;29;20104;-77
2021/12/08 00:15:37;;;;;;;12.95;7.70;;;;;;;7.32;58.59;99567.19;3388363;29;20048;-78
2021/12/08 00:17:17;;;;;;;13.25;8.73;;;;;;;7.22;58.47;99563.94;3388378;29;20040;-77
2021/12/08 00:18:59;;;;;;;11.35;7.43;;;;;;;7.28;58.59;99570.38;3387868;29;20126;-77
2021/12/08 00:20:42;;;;;;;10.77;7.78;;;;;;;7.26;58.32;99570.56;3387871;29;20040;-76
2021/12/08 00:22:22;;;;;;;13.40;7.50;;;;;;;7.22;58.21;99561.28;3387803;29;20503;-76
2021/12/08 00:24:03;;;;;;;12.73;8.13;;;;;;;7.23;58.08;99560.31;3387925;29;20055;-76
2021/12/08 00:25:44;;;;;;;10.60;8.48;;;;;;;7.22;58.36;99561.28;3381028;29;20040;-78
2021/12/08 00:27:25;;;;;;;11.48;7.97;;;;;;;7.20;58.13;99572.09;3388915;29;20192;-79
2021/12/08 00:29:05;;;;;;;13.23;7.68;;;;;;;7.20;58.13;99574.75;3387243;29;20043;-78
2021/12/08 00:30:50;;;;;;;12.52;7.88;;;;;;;7.19;58.12;99567.78;3384576;29;20047;-80
2021/12/08 00:32:33;;;;;;;11.80;7.55;;;;;;;7.23;57.93;99568.25;3387968;29;20043;-79
2021/12/08 00:34:14;;;;;;;10.85;6.47;;;;;;;7.22;57.98;99563.94;3387886;29;20046;-77
2021/12/08 00:35:57;;;;;;;11.02;7.00;;;;;;;7.23;58.03;99560.31;3386710;29;20084;-76
2021/12/08 00:37:38;;;;;;;12.40;7.03;;;;;;;7.25;58.09;99560.94;3391960;29;20562;-76
2021/12/08 00:39:19;;;;;;;10.45;6.93;;;;;;;7.26;57.97;99562.59;3390687;29;20076;-77
2021/12/08 00:40:59;;;;;;;9.27;6.32;;;;;;;7.16;57.96;99557.53;3388221;29;20099;-76
2021/12/08 00:42:40;;;;;;;9.55;5.93;;;;;;;7.25;58.03;99573.38;3387718;29;20465;-79
2021/12/08 00:44:21;;;;;;;10.82;7.15;;;;;;;7.21;57.85;99568.44;3388013;29;20177;-79
2021/12/08 00:46:01;;;;;;;9.43;7.43;;;;;;;7.22;57.92;99567.41;3388781;29;20044;-77
2021/12/08 00:47:42;;;;;;;13.27;7.70;;;;;;;7.28;57.72;99573.88;3387821;29;20082;-78
2021/12/08 00:49:23;;;;;;;9.48;7.03;;;;;;;7.36;57.87;99584.41;3388043;29;20044;-78
2021/12/08 00:51:04;;;;;;;12.90;7.43;;;;;;;7.39;57.92;99583.22;3387961;29;20629;-76
2021/12/08 00:52:44;;;;;;;11.30;7.63;;;;;;;7.42;58.13;99599.59;3388079;29;20036;-77
2021/12/08 00:54:25;;;;;;;11.82;6.85;;;;;;;7.43;58.19;99603.06;3386747;29;20055;-78
2021/12/08 00:56:06;;;;;;;11.02;7.63;;;;;;;7.45;57.90;99600.25;3387483;29;20195;-78
2021/12/08 00:57:47;;;;;;;10.43;6.90;;;;;;;7.45;58.04;99606.38;3387126;29;20091;-77
2021/12/08 00:59:27;;;;;;;10.18;7.57;;;;;;;7.41;57.87;99600.63;3388997;29;20039;-77
2021/12/08 01:01:08;;;;;;;11.32;7.43;;;;;;;7.38;57.71;99598.31;3390040;29;20043;-78
2021/12/08 01:02:49;;;;;;;10.25;7.57;;;;;;;7.34;57.50;99606.78;3390540;29;20419;-78
2021/12/08 01:04:34;;;;;;;10.80;7.90;;;;;;;7.29;57.47;99607.31;3390418;29;20047;-77
2021/12/08 01:06:17;;;;;;;11.23;7.93;;;;;;;7.28;57.32;99599.53;3388944;29;20052;-76
2021/12/08 01:07:58;;;;;;;10.50;7.97;;;;;;;7.21;57.23;99607.38;3389914;29;20459;-78
2021/12/08 01:09:38;;;;;;;11.85;9.05;;;;;;;7.17;57.47;99609.53;3390162;29;20046;-78
2021/12/08 01:11:20;;;;;;;13.70;8.32;;;;;;;7.14;57.26;99617.00;3390006;29;20051;-79
2021/12/08 01:13:07;;;;;;;12.80;7.97;;;;;;;7.10;57.43;99616.53;3390443;29;20111;-77
2021/12/08 01:14:48;;;;;;;11.32;8.18;;;;;;;7.05;57.26;99613.59;3383797;29;20040;-77
2021/12/08 01:16:28;;;;;;;11.45;8.10;;;;;;;7.01;57.31;99614.09;3390275;29;20453;-77
2021/12/08 01:18:09;;;;;;;11.73;7.90;;;;;;;6.96;57.41;99607.47;3389274;29;20036;-77
2021/12/08 01:19:50;;;;;;;11.32;8.18;;;;;;;6.95;57.34;99605.84;3390140;29;20044;-77
2021/12/08 01:21:31;;;;;;;12.65;7.85;;;;;;;6.95;57.36;99612.97;3390007;29;20040;-78
2021/12/08 01:23:11;;;;;;;11.95;8.18;;;;;;;6.92;57.42;99615.97;3389017;29;20438;-76
2021/12/08 01:24:52;;;;;;;13.52;7.78;;;;;;;6.89;57.34;99609.19;3389865;29;20040;-77
2021/12/08 01:26:33;;;;;;;12.85;8.35;;;;;;;6.95;57.28;99613.78;3389838;29;20047;-78
2021/12/08 01:28:16;;;;;;;11.90;7.82;;;;;;;7.02;57.22;99618.38;3389361;29;20337;-76
2021/12/08 01:29:57;;;;;;;13.05;7.57;;;;;;;7.08;57.27;99623.00;3389971;29;20036;-76
2021/12/08 01:31:41;;;;;;;10.18;6.97;;;;;;;7.12;57.16;99622.47;3390566;29;20142;-77
2021/12/08 01:33:27;;;;;;;10.38;7.05;;;;;;;7.14;57.56;99611.72;3389711;29;20132;-76
2021/12/08 01:35:10;;;;;;;12.00;7.82;;;;;;;7.19;57.29;99630.56;3389073;29;20071;-77
2021/12/08 01:36:50;;;;;;;13.50;8.13;;;;;;;7.20;57.28;99629.56;3389355;29;20526;-77
2021/12/08 01:38:32;;;;;;;10.70;7.47;;;;;;;7.21;57.20;99626.75;3389026;29;20040;-78
2021/12/08 01:40:14;;;;;;;11.93;8.18;;;;;;;7.21;57.23;99629.38;3389270;29;20262;-78
2021/12/08 01:41:55;;;;;;;12.25;7.97;;;;;;;7.25;56.75;99619.25;3389714;29;20047;-78
2021/12/08 01:47:34;;;;;;;11.75;7.53;;;;;;;7.21;56.47;99610.03;3389437;29;20388;-76
2021/12/08 01:49:15;;;;;;;15.68;9.15;;;;;;;7.22;56.50;99612.47;3389290;29;20051;-77
2021/12/08 01:51:01;;;;;;;10.32;7.13;;;;;;;7.20;56.51;99621.59;3388910;29;20047;-77
2021/12/08 01:52:42;;;;;;;14.68;8.95;;;;;;;7.14;56.71;99617.00;3389502;29;20040;-78
2021/12/08 01:54:22;;;;;;;14.40;9.43;;;;;;;7.19;56.35;99626.09;3388603;29;20074;-78
2021/12/08 01:56:04;;;;;;;24.67;8.65;;;;;;;7.17;56.52;99632.56;3385996;29;20036;-76
2021/12/08 01:57:45;;;;;;;13.93;8.93;;;;;;;7.11;56.73;99622.66;3388742;29;20157;-77
2021/12/08 01:59:26;;;;;;;13.68;8.50;;;;;;;7.12;56.46;99624.31;3388833;29;20048;-76
2021/12/08 02:01:09;;;;;;;17.17;9.85;;;;;;;7.13;56.48;99626.78;3389032;29;20047;-77
2021/12/08 02:02:49;;;;;;;14.02;8.75;;;;;;;7.12;56.34;99635.72;3389732;29;20043;-78
2021/12/08 02:04:30;;;;;;;14.32;9.13;;;;;;;7.12;56.43;99633.06;3389682;29;20479;-77
2021/12/08 02:06:13;;;;;;;14.02;9.18;;;;;;;7.04;56.27;99627.00;3388208;29;20474;-76
2021/12/08 02:07:54;;;;;;;13.93;8.73;;;;;;;7.11;56.44;99639.38;3389333;29;20069;-76
2021/12/08 02:09:35;;;;;;;14.05;8.27;;;;;;;7.08;56.27;99641.56;3388525;29;20051;-76
2021/12/08 02:11:16;;;;;;;17.15;9.02;;;;;;;7.07;56.20;99647.84;3389995;29;20055;-78
2021/12/08 02:12:57;;;;;;;15.02;9.32;;;;;;;7.05;56.26;99652.50;3391542;29;20042;-78
2021/12/08 02:14:39;;;;;;;17.05;10.40;;;;;;;7.02;56.00;99653.66;3390266;29;20079;-79
2021/12/08 02:16:20;;;;;;;16.08;10.90;;;;;;;6.98;56.18;99647.06;3389811;29;20051;-79
2021/12/08 02:18:00;;;;;;;15.75;10.70;;;;;;;7.01;56.06;99656.50;3391003;29;20412;-77
2021/12/08 02:19:41;;;;;;;15.45;9.43;;;;;;;7.04;55.99;99658.78;3394055;29;20039;-81
2021/12/08 02:21:31;;;;;;;15.32;9.40;;;;;;;7.10;56.24;99656.28;3404401;29;20048;-79
2021/12/08 02:23:12;;;;;;;18.13;9.98;;;;;;;7.11;56.27;99665.88;3398640;29;20043;-80
2021/12/08 02:24:53;;;;;;;12.65;9.07;;;;;;;7.10;56.38;99658.94;3394134;29;20048;-79
2021/12/08 02:26:35;;;;;;;12.68;8.90;;;;;;;7.08;56.55;99662.78;3388668;29;20154;-78
2021/12/08 02:28:16;;;;;;;13.68;9.13;;;;;;;7.05;56.21;99657.78;3396974;29;20036;-79
2021/12/08 02:30:06;;;;;;;17.38;9.93;;;;;;;7.05;56.35;99660.44;3392193;29;20449;-79
2021/12/08 02:31:55;;;;;;;13.73;9.02;;;;;;;7.01;56.28;99657.31;3385484;29;20055;-79
2021/12/08 02:49:33;;;;;;;16.15;9.90;;;;;;;7.13;55.82;99668.38;3388913;29;20083;-78
2021/12/08 02:51:14;;;;;;;16.05;8.60;;;;;;;7.18;56.13;99672.16;3388013;29;20630;-79
2021/12/08 02:52:56;;;;;;;16.08;9.73;;;;;;;7.26;56.22;99681.91;3386050;29;20103;-77
2021/12/08 02:54:39;;;;;;;13.57;9.38;;;;;;;7.24;56.13;99675.13;3388926;29;20099;-77
2021/12/08 02:56:20;;;;;;;14.30;8.45;;;;;;;7.22;56.09;99675.28;3378753;29;20071;-77
2021/12/08 02:58:03;;;;;;;15.77;9.95;;;;;;;7.19;55.94;99672.97;3386161;29;20044;-76
2021/12/08 02:59:47;;;;;;;15.63;9.65;;;;;;;7.21;55.99;99676.28;3388770;29;20032;-78
2021/12/08 03:01:28;;;;;;;13.82;8.40;;;;;;;7.24;55.92;99680.41;3370414;29;20619;-78
2021/12/08 03:03:09;;;;;;;12.90;8.45;;;;;;;7.26;55.97;99681.91;3383313;29;20099;-78
2021/12/08 03:04:50;;;;;;;15.93;9.65;;;;;;;7.22;55.92;99684.03;3390232;29;20071;-78
2021/12/08 03:06:31;;;;;;;16.67;10.30;;;;;;;7.13;55.87;99681.63;3389474;29;20055;-79
2021/12/08 03:08:13;;;;;;;15.55;9.73;;;;;;;7.07;55.59;99685.75;3389163;29;20138;-79
2021/12/08 03:09:53;;;;;;;18.10;11.35;;;;;;;7.01;55.58;99680.34;3389056;29;20048;-78
2021/12/08 03:11:35;;;;;;;16.15;9.98;;;;;;;6.95;55.70;99692.47;3389826;29;20047;-77
2021/12/08 03:13:17;;;;;;;15.75;10.50;;;;;;;6.91;55.66;99705.19;3375710;29;20151;-78
2021/12/08 03:14:57;;;;;;;14.20;9.27;;;;;;;6.86;55.73;99701.41;3383472;29;20454;-78
2021/12/08 03:16:42;;;;;;;15.35;9.75;;;;;;;6.81;55.77;99696.63;3388268;29;20124;-76
2021/12/08 03:18:31;;;;;;;18.92;11.32;;;;;;;6.76;55.81;99696.31;3386773;29;20040;-78
2021/12/08 03:20:15;;;;;;;18.15;10.77;;;;;;;6.80;55.59;99705.56;3389691;29;20042;-78
2021/12/08 03:21:56;;;;;;;15.60;9.68;;;;;;;6.81;55.90;99701.91;3387082;29;20040;-77
2021/12/08 03:23:52;;;;;;;15.13;10.07;;;;;;;6.82;55.57;99703.59;3385516;29;20447;-77
2021/12/08 03:25:37;;;;;;;15.00;10.43;;;;;;;6.81;55.50;99695.81;3388752;29;20071;-77
2021/12/08 03:27:25;;;;;;;15.30;10.38;;;;;;;6.77;55.36;99705.91;3386554;29;20040;-77
2021/12/08 03:29:19;;;;;;;16.88;10.65;;;;;;;6.75;55.21;99700.78;3388329;29;20381;-76
2021/12/08 03:31:10;;;;;;;14.07;8.88;;;;;;;6.74;55.14;99696.50;3388198;29;20036;-77
2021/12/08 03:32:56;;;;;;;15.95;11.65;;;;;;;6.70;55.18;99700.47;3382108;29;20424;-77
2021/12/08 03:34:41;;;;;;;14.40;9.75;;;;;;;6.72;55.17;99711.72;3388586;29;20042;-77
2021/12/08 03:36:21;;;;;;;16.02;10.02;;;;;;;6.72;55.33;99713.56;3388137;29;20645;-77
2021/12/08 03:38:02;;;;;;;13.05;8.95;;;;;;;6.69;55.09;99720.00;3389195;29;20055;-77
2021/12/08 03:39:43;;;;;;;12.90;8.65;;;;;;;6.59;55.13;99707.94;3389670;29;20040;-77
2021/12/08 03:41:26;;;;;;;17.67;9.82;;;;;;;6.63;55.16;99720.66;3389089;29;20048;-77
2021/12/08 03:43:07;;;;;;;16.30;9.45;;;;;;;6.60;55.29;99714.88;3374799;29;20099;-79
2021/12/08 03:44:49;;;;;;;15.02;9.80;;;;;;;6.61;55.17;99716.53;3386558;29;20040;-78
2021/12/08 03:46:39;;;;;;;17.70;10.45;;;;;;;6.59;55.30;99724.66;3388551;29;20044;-76
2021/12/08 03:48:32;;;;;;;15.50;8.52;;;;;;;6.60;55.00;99725.47;3388253;29;20459;-78
2021/12/08 03:50:15;;;;;;;17.42;10.20;;;;;;;6.57;54.87;99726.66;3389641;29;20510;-75
2021/12/08 03:52:02;;;;;;;14.95;9.77;;;;;;;6.55;55.10;99729.44;3388367;29;20437;-76
2021/12/08 03:53:43;;;;;;;15.27;10.20;;;;;;;6.55;55.06;99737.38;3388125;29;20873;-76
2021/12/08 03:55:24;;;;;;;19.80;10.18;;;;;;;6.55;54.91;99734.75;3387973;29;20043;-72
2021/12/08 03:57:06;;;;;;;15.00;9.05;;;;;;;6.52;55.03;99727.13;3387522;29;20052;-73
2021/12/08 03:58:46;;;;;;;14.13;10.40;;;;;;;6.57;55.23;99731.13;3387510;29;20044;-74
2021/12/08 04:00:29;;;;;;;15.52;9.07;;;;;;;6.67;55.22;99737.06;3383975;29;20047;-76
2021/12/08 04:02:10;;;;;;;13.35;8.77;;;;;;;6.76;55.49;99739.53;3384550;29;20136;-76
2021/12/08 04:03:52;;;;;;;13.73;8.70;;;;;;;6.83;55.32;99742.31;3384508;29;20036;-75
2021/12/08 04:05:45;;;;;;;16.08;9.15;;;;;;;6.86;55.19;99739.31;3387708;29;20555;-74
2021/12/08 04:07:26;;;;;;;16.42;9.07;;;;;;;6.90;55.31;99740.66;3387514;29;20051;-75
2021/12/08 04:09:17;;;;;;;15.50;10.03;;;;;;;6.87;55.31;99741.00;3388103;29;20124;-75
2021/12/08 04:11:00;;;;;;;20.92;7.90;;;;;;;6.88;56.22;99749.75;3387945;29;20048;-75
2021/12/08 04:12:41;;;;;;;15.82;9.30;;;;;;;6.89;56.14;99746.97;3388141;29;20035;-76
2021/12/08 04:14:25;;;;;;;16.52;8.82;;;;;;;6.97;56.13;99754.88;3387709;29;20039;-76
2021/12/08 04:16:08;;;;;;;21.15;9.40;;;;;;;7.03;55.38;99752.56;3387815;29;20127;-76
2021/12/08 04:17:51;;;;;;;14.00;9.07;;;;;;;7.07;55.15;99748.53;3386596;29;20071;-75
2021/12/08 04:19:33;;;;;;;21.10;10.10;;;;;;;7.12;54.57;99756.81;3384426;29;20500;-77
2021/12/08 04:21:15;;;;;;;;;;;;;;;7.26;54.87;99757.94;3387653;29;20512;-76
2021/12/08 04:22:57;;;;;;;18.92;10.02;;;;;;;7.20;54.37;99762.09;3388183;29;19923;-77
2021/12/08 04:24:39;;;;;;;;;;;;;;;7.27;54.43;99760.41;3374030;29;20037;-74
2021/12/08 04:26:50;;;;;;;14.40;9.17;;;;;;;7.26;54.35;99764.06;3384145;29;20405;-77
2021/12/08 04:28:32;;;;;;;17.35;9.57;;;;;;;7.26;54.17;99764.06;3386600;29;20505;-76
2021/12/08 04:30:23;;;;;;;16.83;10.02;;;;;;;7.22;53.79;99763.56;3387107;29;20036;-77
2021/12/08 04:32:05;;;;;;;15.40;9.73;;;;;;;7.22;54.00;99766.22;3383190;29;20147;-76
2021/12/08 04:33:47;;;;;;;;;;;;;;;7.33;54.07;99769.50;3390196;29;20043;-76
2021/12/08 04:35:29;;;;;;;15.20;8.23;;;;;;;7.34;55.79;99766.69;3390614;29;19922;-77
2021/12/08 04:37:19;;;;;;;14.05;9.23;;;;;;;7.49;56.78;99768.63;3390424;29;20040;-76
2021/12/08 04:39:03;;;;;;;18.70;10.43;;;;;;;7.61;55.50;99761.91;3390886;29;20051;-75
2021/12/08 04:43:38;;;;;;;17.98;11.18;;;;;;;7.67;54.34;99771.84;3390648;29;20139;-76
2021/12/08 04:44:51;;;;;;;23.45;10.90;;;;;;;7.63;54.79;99766.03;3385854;29;20060;-76
2021/12/08 04:51:56;;;;;;;18.15;11.18;;;;;;;7.56;53.68;99772.22;3396992;29;20471;-76
2021/12/08 04:54:05;;;;;;;17.77;10.48;;;;;;;7.54;53.47;99774.25;3389987;29;20107;-76
2021/12/08 05:09:35;;;;;;;15.35;8.93;;;;;;;7.75;52.92;99822.22;3389975;29;20471;-74
2021/12/08 05:11:30;;;;;;;18.30;9.60;;;;;;;7.71;52.59;99830.69;3388123;29;20444;-74
2021/12/08 05:13:14;;;;;;;17.48;8.32;;;;;;;7.66;52.66;99817.94;3389920;29;20440;-76
2021/12/08 05:15:00;;;;;;;19.42;11.55;;;;;;;7.69;52.60;99822.88;3383337;29;20036;-75
2021/12/08 05:16:46;;;;;;;14.35;8.30;;;;;;;7.71;52.58;99830.69;3382505;29;20060;-76
2021/12/08 05:18:33;;;;;;;19.05;9.95;;;;;;;7.76;52.81;99836.28;3388594;29;20054;-75
2021/12/08 05:20:21;;;;;;;19.92;10.05;;;;;;;7.74;52.33;99847.06;3387809;29;20067;-76
2021/12/08 05:22:07;;;;;;;16.08;9.00;;;;;;;7.68;52.79;99834.50;3384849;29;20048;-76
2021/12/08 05:23:58;;;;;;;15.68;7.70;;;;;;;7.77;54.63;99827.31;3382824;29;20039;-76
2021/12/08 05:25:39;;;;;;;25.35;9.02;;;;;;;7.85;54.93;99825.47;3390022;29;20051;-75
2021/12/08 05:27:23;;;;;;;17.50;9.30;;;;;;;8.01;54.69;99829.88;3390123;29;20048;-77
2021/12/08 05:29:09;;;;;;;17.10;8.90;;;;;;;8.08;53.25;99833.50;3389889;29;20050;-76
2021/12/08 05:31:03;;;;;;;22.35;10.77;;;;;;;8.04;52.01;99837.47;3390205;29;20044;-79
2021/12/08 05:32:44;;;;;;;20.00;10.00;;;;;;;7.98;51.90;99843.50;3376312;29;20033;-83
2021/12/08 05:34:26;;;;;;;19.67;9.45;;;;;;;7.91;51.47;99852.31;3375064;29;20060;-80
2021/12/08 05:36:08;;;;;;;17.35;10.20;;;;;;;7.80;51.45;99835.78;3386323;29;20036;-83
2021/12/08 05:37:49;;;;;;;;;;;;;;;7.88;51.62;99852.69;3360450;29;20052;-78
2021/12/08 05:39:31;;;;;;;18.33;10.13;;;;;;;7.68;51.54;99847.78;3387803;29;19923;-77
2021/12/08 05:41:28;;;;;;;20.67;10.18;;;;;;;7.55;50.93;99850.97;3391925;29;20056;-78
2021/12/08 05:43:10;;;;;;;17.95;10.80;;;;;;;7.36;51.49;99854.84;3388368;29;20562;-77
2021/12/08 05:44:51;;;;;;;21.02;11.02;;;;;;;7.21;51.35;99856.53;3386165;29;20044;-77
2021/12/08 05:46:33;;;;;;;21.20;10.50;;;;;;;7.07;51.38;99854.56;3389122;29;20054;-76
2021/12/08 05:48:15;;;;;;;18.40;10.20;;;;;;;6.96;51.54;99851.25;3389214;29;20523;-75
2021/12/08 05:49:56;;;;;;;17.10;10.50;;;;;;;6.86;51.57;99863.84;3388229;29;20423;-77
2021/12/08 05:51:37;;;;;;;20.52;10.85;;;;;;;6.77;51.63;99872.78;3396911;29;20288;-78
2021/12/08 05:53:18;;;;;;;22.77;11.02;;;;;;;6.67;51.60;99875.59;3390000;29;20506;-77
2021/12/08 05:54:59;;;;;;;17.95;10.45;;;;;;;6.57;51.73;99874.09;3390233;29;20475;-76
2021/12/08 05:56:41;;;;;;;20.65;10.70;;;;;;;6.48;51.63;99876.75;3386780;29;20048;-78
2021/12/08 05:58:24;;;;;;;21.13;10.85;;;;;;;6.40;51.56;99868.81;3389799;29;20496;-75
2021/12/08 06:00:10;;;;;;;23.65;11.15;;;;;;;6.33;51.54;99867.78;3390592;29;20095;-77
2021/12/08 06:02:11;;;;;;;21.65;11.10;;;;;;;6.25;51.49;99876.53;3392455;29;20044;-78
2021/12/08 06:03:52;;;;;;;21.92;11.13;;;;;;;6.20;51.58;99883.31;3390049;29;20040;-76
2021/12/08 06:05:33;;;;;;;21.38;12.07;;;;;;;6.13;51.65;99879.66;3391603;29;20389;-77
2021/12/08 06:07:14;;;;;;;21.33;11.05;;;;;;;6.07;51.80;99881.94;3390559;29;20578;-76
2021/12/08 06:08:56;;;;;;;27.35;11.98;;;;;;;6.02;51.82;99892.19;3384728;29;20038;-76
2021/12/08 06:10:38;;;;;;;20.85;10.98;;;;;;;5.96;51.86;99892.81;3390674;29;20036;-77
2021/12/08 06:12:18;;;;;;;;;;;;;;;6.05;51.98;99899.78;3389929;29;20127;-78
2021/12/08 06:14:00;;;;;;;16.98;9.18;;;;;;;5.92;51.83;99907.31;3390300;29;19926;-78
2021/12/08 06:15:43;;;;;;;22.40;10.38;;;;;;;5.84;51.72;99907.28;3389089;29;20534;-76
2021/12/08 06:17:27;;;;;;;20.17;10.63;;;;;;;5.78;51.85;99908.75;3389894;29;20480;-76
2021/12/08 06:19:10;;;;;;;22.70;11.18;;;;;;;5.73;52.06;99908.41;3388653;29;20051;-77
2021/12/08 06:20:54;;;;;;;21.27;10.15;;;;;;;5.69;51.84;99918.44;3390153;29;20071;-77
2021/12/08 06:22:35;;;;;;;20.33;11.27;;;;;;;5.64;51.67;99914.63;3389453;29;20036;-77
2021/12/08 06:24:18;;;;;;;17.27;9.63;;;;;;;5.57;52.04;99924.97;3388199;29;20582;-75
2021/12/08 06:25:59;;;;;;;22.75;11.68;;;;;;;5.54;52.00;99925.28;3389384;29;20036;-75
2021/12/08 06:27:40;;;;;;;20.58;10.73;;;;;;;5.46;52.03;99907.56;3389177;29;20090;-74
2021/12/08 06:29:21;;;;;;;30.90;10.45;;;;;;;5.49;52.18;99911.72;3387707;29;20476;-76
2021/12/08 06:31:03;;;;;;;18.92;12.32;;;;;;;5.46;52.30;99912.03;3389147;29;20067;-74
2021/12/08 06:32:44;;;;;;;20.00;10.25;;;;;;;5.44;52.39;99911.34;3395597;29;20043;-76
2021/12/08 06:34:26;;;;;;;19.98;9.70;;;;;;;5.45;52.49;99918.31;3388133;29;20226;-75
2021/12/08 06:36:11;;;;;;;21.52;11.90;;;;;;;5.46;52.63;99925.25;3388636;29;20044;-76
2021/12/08 06:37:53;;;;;;;19.23;10.77;;;;;;;5.43;52.42;99915.81;3387973;29;20036;-77
2021/12/08 06:39:40;;;;;;;16.58;9.13;;;;;;;5.41;52.40;99914.31;3389136;29;20042;-77
2021/12/08 06:41:32;;;;;;;20.63;10.43;;;;;;;5.40;52.36;99908.22;3388875;29;20047;-76
2021/12/08 06:43:15;;;;;;;21.15;11.63;;;;;;;5.36;52.44;99913.94;3389072;29;20055;-76
2021/12/08 06:44:56;;;;;;;18.67;11.43;;;;;;;5.32;52.61;99909.94;3389680;29;20062;-75
2021/12/08 06:46:39;;;;;;;18.15;9.93;;;;;;;5.29;52.44;99920.84;3388836;29;20040;-75
2021/12/08 06:48:28;;;;;;;17.70;10.30;;;;;;;5.25;52.32;99920.31;3386395;29;20126;-76
2021/12/08 06:50:17;;;;;;;16.83;10.23;;;;;;;5.23;52.41;99917.00;3388220;29;20502;-77
2021/12/08 06:52:06;;;;;;;20.15;10.90;;;;;;;5.23;52.52;99928.41;3374362;29;20091;-75
2021/12/08 06:53:51;;;;;;;21.58;11.00;;;;;;;5.18;52.43;99928.03;3381633;29;20504;-75
2021/12/08 06:55:36;;;;;;;20.55;10.35;;;;;;;5.19;52.45;99926.25;3389159;29;20475;-75
2021/12/08 06:57:26;;;;;;;16.73;9.20;;;;;;;5.19;52.64;99923.59;3386954;29;20047;-75
2021/12/08 06:59:10;;;;;;;21.42;10.10;;;;;;;5.20;52.54;99926.06;3389651;29;20183;-76
2021/12/08 07:01:12;;;;;;;16.63;10.02;;;;;;;5.21;52.40;99925.09;3387615;29;20131;-76
2021/12/08 07:03:05;;;;;;;20.95;12.35;;;;;;;5.18;52.32;99932.50;3383149;29;20531;-76
2021/12/08 07:06:05;;;;;;;;;;;;;;;5.29;52.12;99936.69;3382517;29;20044;-77
2021/12/08 07:07:14;;;;;;;15.70;9.00;;;;;;;5.20;52.02;99933.16;3381406;29;20334;-77
2021/12/08 07:08:56;;;;;;;24.08;9.68;;;;;;;5.14;52.00;99934.63;3387010;29;20676;-76
2021/12/08 07:10:41;;;;;;;19.30;10.00;;;;;;;5.12;52.05;99936.56;3387843;29;20035;-76
2021/12/08 07:12:24;;;;;;;17.70;9.98;;;;;;;5.10;52.10;99938.53;3386868;29;20175;-77
2021/12/08 07:14:06;;;;;;;17.25;10.60;;;;;;;5.06;52.06;99926.63;3388299;29;20464;-76
2021/12/08 07:15:51;;;;;;;;;;;;;;;5.19;52.04;99932.34;3388311;29;20036;-76
2021/12/08 07:17:34;;;;;;;16.65;8.65;;;;;;;5.10;51.80;99943.81;3384843;29;20450;-77
2021/12/08 07:19:44;;;;;;;24.88;11.68;;;;;;;5.10;52.00;99946.47;3387361;29;20479;-76
2021/12/08 07:21:30;;;;;;;17.65;9.77;;;;;;;5.07;52.15;99943.31;3384723;29;20048;-76
2021/12/08 07:23:23;;;;;;;18.00;9.57;;;;;;;5.06;52.45;99946.91;3387970;29;20066;-77
2021/12/08 07:25:06;;;;;;;23.58;11.70;;;;;;;5.05;52.14;99951.38;3388925;29;20582;-75
2021/12/08 07:26:51;;;;;;;22.52;9.23;;;;;;;5.03;52.18;99954.19;3388861;29;20103;-77
2021/12/08 07:28:32;;;;;;;21.55;10.88;;;;;;;5.02;52.27;99957.78;3388312;29;20036;-76
2021/12/08 07:30:24;;;;;;;18.48;10.50;;;;;;;5.02;51.97;99963.06;3391316;29;20035;-76
2021/12/08 07:32:31;;;;;;;19.92;10.68;;;;;;;5.05;51.94;99964.59;3379740;29;20062;-76
2021/12/08 07:34:18;;;;;;;19.95;10.35;;;;;;;4.98;52.16;99969.66;3381424;29;20126;-78
2021/12/08 07:36:04;;;;;;;18.83;10.27;;;;;;;4.97;51.84;99965.34;3388110;29;20393;-73
2021/12/08 07:37:45;;;;;;;20.58;10.88;;;;;;;4.97;52.11;99964.50;3387061;29;20044;-74
2021/12/08 07:39:31;;;;;;;19.73;10.55;;;;;;;4.97;52.25;99961.88;3387675;29;20415;-75
2021/12/08 07:41:32;;;;;;;24.08;11.30;;;;;;;5.03;52.20;99966.53;3386667;29;20492;-75
2021/12/08 07:43:16;;;;;;;22.02;10.18;;;;;;;5.00;51.99;99958.91;3388010;29;20546;-73
2021/12/08 07:45:00;;;;;;;26.05;12.15;;;;;;;5.00;52.19;99966.84;3373486;29;20111;-73
2021/12/08 07:46:47;;;;;;;22.90;12.40;;;;;;;5.00;52.42;99966.84;3383447;29;20043;-73
2021/12/08 07:48:35;;;;;;;20.58;10.63;;;;;;;4.99;52.25;99973.94;3386660;29;20044;-74
2021/12/08 07:50:37;;;;;;;19.88;10.43;;;;;;;5.00;52.14;99975.59;3387234;29;20120;-74
2021/12/08 07:52:33;;;;;;;18.80;9.85;;;;;;;5.00;52.29;99974.78;3387897;29;20495;-73
2021/12/08 07:54:16;;;;;;;21.98;11.70;;;;;;;4.95;52.10;99972.56;3387798;29;20040;-73
2021/12/08 07:56:03;;;;;;;15.38;8.68;;;;;;;4.96;52.17;99978.72;3387165;29;20039;-75
2021/12/08 07:57:44;;;;;;;18.52;9.73;;;;;;;4.94;52.32;99970.94;3388826;29;20048;-75
2021/12/08 07:59:27;;;;;;;19.90;9.73;;;;;;;4.90;52.26;99968.72;3401034;29;20142;-73
2021/12/08 08:01:14;;;;;;;17.88;9.38;;;;;;;4.91;51.91;99970.41;3400576;29;20146;-73
2021/12/08 08:02:55;;;;;;;17.05;9.80;;;;;;;4.87;51.82;99971.69;3388294;29;20044;-74
2021/12/08 08:04:41;;;;;;;17.80;9.23;;;;;;;4.84;51.83;99985.19;3387556;29;20040;-74
2021/12/08 08:06:28;;;;;;;17.88;10.27;;;;;;;4.82;51.91;99983.50;3388277;29;20436;-75
2021/12/08 08:08:13;;;;;;;15.50;9.93;;;;;;;4.79;51.86;99975.91;3373820;29;20041;-73
2021/12/08 08:10:01;;;;;;;21.40;10.63;;;;;;;4.78;52.03;99976.88;3375701;29;20043;-73
2021/12/08 08:11:44;;;;;;;23.30;11.70;;;;;;;4.79;52.10;99978.53;3386284;29;20412;-74
2021/12/08 08:13:28;;;;;;;38.90;15.27;;;;;;;4.79;52.38;99975.91;3390472;29;20040;-72
2021/12/08 08:15:15;;;;;;;32.00;16.45;;;;;;;4.81;52.56;99971.31;3375751;29;20145;-74
2021/12/08 08:17:00;;;;;;;41.28;21.38;;;;;;;4.81;52.80;99973.94;3389189;29;20079;-74
2021/12/08 08:18:47;;;;;;;46.95;22.60;;;;;;;4.82;52.96;99980.88;3387994;29;20096;-75
2021/12/08 08:20:32;;;;;;;75.28;25.35;;;;;;;4.84;52.81;99979.91;3388216;29;20040;-75
2021/12/08 08:22:21;;;;;;;38.58;19.65;;;;;;;4.86;52.81;99977.97;3387837;29;20040;-74
2021/12/08 08:24:05;;;;;;;37.72;20.55;;;;;;;4.81;52.49;99984.50;3388328;29;20083;-74
2021/12/08 08:25:51;;;;;;;216.05;95.03;;;;;;;5.01;56.91;99987.84;3387199;29;20147;-72
2021/12/08 08:27:32;;;;;;;;;;;;;;;5.42;61.72;99995.25;3388049;29;20137;-71
2021/12/08 08:29:14;;;;;;;114.85;55.30;;;;;;;5.58;60.56;99982.19;3387481;29;19927;-71
2021/12/08 08:31:06;;;;;;;160.60;82.03;;;;;;;5.87;65.30;99996.91;3387908;29;20183;-71
2021/12/08 08:32:49;;;;;;;166.55;75.90;;;;;;;6.21;67.04;99996.09;3385981;29;20040;-70
2021/12/08 08:34:35;;;;;;;120.50;55.70;;;;;;;6.47;67.96;99996.88;3386938;29;20786;-71
2021/12/08 08:36:20;;;;;;;141.00;69.93;;;;;;;6.68;69.07;99998.25;3388021;29;20393;-72
2021/12/08 08:38:05;;;;;;;151.60;66.43;;;;;;;6.91;70.51;100007.25;3387713;29;20083;-72
2021/12/08 08:39:52;;;;;;;129.23;60.63;;;;;;;7.12;71.53;99995.34;3388140;29;20222;-71
2021/12/08 08:41:35;;;;;;;119.25;54.70;;;;;;;7.34;70.72;100000.00;3388514;29;20135;-70
2021/12/08 08:43:17;;;;;;;97.63;44.33;;;;;;;7.54;69.71;99997.84;3388427;29;20103;-70
2021/12/08 08:45:12;;;;;;;74.80;33.00;;;;;;;7.65;65.27;99991.34;3386981;29;20107;-71
2021/12/08 08:46:56;;;;;;;63.58;29.00;;;;;;;7.68;64.06;99991.00;3390154;29;20307;-72
2021/12/08 08:48:48;;;;;;;58.13;26.23;;;;;;;7.73;62.57;99994.00;3383501;29;20040;-70
2021/12/08 08:50:59;;;;;;;53.60;26.98;;;;;;;7.79;61.76;99995.97;3385531;29;20036;-73
2021/12/08 08:52:44;;;;;;;48.33;21.95;;;;;;;7.77;60.30;100000.63;3397345;29;20142;-70
2021/12/08 08:54:29;;;;;;;40.90;20.45;;;;;;;7.72;59.35;99992.34;3394382;29;20040;-73